sensor_id;sensor_type;location;lat;lon;timestamp;pressure;altitude;pressure_sealevel;temperature;humidity
10652;BME280;5374;42.742;23.266;2022-08-21T00:00:18;94897.22;;;20.04;100.00
10652;BME280;5374;42.742;23.266;2022-08-21T00:03:09;94894.22;;;20.06;100.00
10652;BME280;5374;42.742;23.266;2022-08-21T00:05:56;94883.59;;;20.09;100.00
10652;BME280;5374;42.742;23.266;2022-08-21T00:08:44;94887.25;;;20.05;100.00
10652;BME280;5374;42.742;23.266;2022-08-21T00:11:31;94878.69;;;20.03;100.00
10652;BME280;5374;42.742;23.266;2022-08-21T00:14:18;94875.81;;;20.08;100.00
10652;BME280;5374;42.742;23.266;2022-08-21T00:17:06;94882.78;;;20.09;100.00
10652;BME280;5374;42.742;23.266;2022-08-21T00:19:55;94877.41;;;20.09;100.00
10652;BME280;5374;42.742;23.266;2022-08-21T00:22:42;94875.63;;;20.13;100.00
10652;BME280;5374;42.742;23.266;2022-08-21T00:25:30;94869.13;;;20.14;100.00
10652;BME280;5374;42.742;23.266;2022-08-21T00:28:17;94857.53;;;20.13;100.00
10652;BME280;5374;42.742;23.266;2022-08-21T00:31:05;94823.22;;;19.93;100.00
10652;BME280;5374;42.742;23.266;2022-08-21T00:33:52;94858.81;;;20.16;100.00
10652;BME280;5374;42.742;23.266;2022-08-21T00:36:40;94858.34;;;20.14;100.00
10652;BME280;5374;42.742;23.266;2022-08-21T00:39:28;94860.56;;;20.12;100.00
10652;BME280;5374;42.742;23.266;2022-08-21T00:42:15;94858.53;;;20.09;100.00
10652;BME280;5374;42.742;23.266;2022-08-21T00:45:04;94855.84;;;20.09;100.00
10652;BME280;5374;42.742;23.266;2022-08-21T00:47:52;94866.88;;;20.16;100.00
10652;BME280;5374;42.742;23.266;2022-08-21T00:50:44;94857.22;;;20.15;100.00
10652;BME280;5374;42.742;23.266;2022-08-21T00:53:35;94864.50;;;20.14;100.00
10652;BME280;5374;42.742;23.266;2022-08-21T00:56:25;94866.88;;;20.16;100.00
10652;BME280;5374;42.742;23.266;2022-08-21T00:59:12;94866.41;;;20.14;100.00
10652;BME280;5374;42.742;23.266;2022-08-21T01:01:59;94867.69;;;20.17;100.00
10652;BME280;5374;42.742;23.266;2022-08-21T01:04:47;94869.91;;;20.14;100.00
10652;BME280;5374;42.742;23.266;2022-08-21T01:07:34;94857.88;;;20.12;100.00
10652;BME280;5374;42.742;23.266;2022-08-21T01:10:23;94849.03;;;20.03;100.00
10652;BME280;5374;42.742;23.266;2022-08-21T01:13:12;94852.84;;;20.02;100.00
10652;BME280;5374;42.742;23.266;2022-08-21T01:16:03;94853.81;;;19.97;100.00
10652;BME280;5374;42.742;23.266;2022-08-21T01:18:51;94855.88;;;19.92;100.00
10652;BME280;5374;42.742;23.266;2022-08-21T01:21:40;94848.28;;;19.94;100.00
10652;BME280;5374;42.742;23.266;2022-08-21T01:24:27;94840.19;;;19.94;100.00
10652;BME280;5374;42.742;23.266;2022-08-21T01:27:14;94837.81;;;19.92;100.00
10652;BME280;5374;42.742;23.266;2022-08-21T01:30:09;94846.69;;;19.93;100.00
10652;BME280;5374;42.742;23.266;2022-08-21T01:32:57;94850.34;;;19.88;100.00
10652;BME280;5374;42.742;23.266;2022-08-21T01:35:44;94845.09;;;19.92;100.00
10652;BME280;5374;42.742;23.266;2022-08-21T01:38:33;94845.09;;;19.92;100.00
10652;BME280;5374;42.742;23.266;2022-08-21T01:41:20;94850.19;;;19.93;100.00
10652;BME280;5374;42.742;23.266;2022-08-21T01:44:07;94846.09;;;19.87;100.00
10652;BME280;5374;42.742;23.266;2022-08-21T01:46:55;94853.03;;;19.88;100.00
10652;BME280;5374;42.742;23.266;2022-08-21T01:49:44;94848.00;;;19.87;100.00
10652;BME280;5374;42.742;23.266;2022-08-21T01:52:32;94851.81;;;19.86;100.00
10652;BME280;5374;42.742;23.266;2022-08-21T01:55:22;94852.28;;;19.88;100.00
10652;BME280;5374;42.742;23.266;2022-08-21T01:58:09;94858.31;;;19.85;100.00
10652;BME280;5374;42.742;23.266;2022-08-21T02:00:57;94859.41;;;19.84;100.00
10652;BME280;5374;42.742;23.266;2022-08-21T02:03:44;94855.47;;;19.81;100.00
10652;BME280;5374;42.742;23.266;2022-08-21T02:06:31;94845.47;;;19.82;100.00
10652;BME280;5374;42.742;23.266;2022-08-21T02:09:19;94855.47;;;19.81;100.00
10652;BME280;5374;42.742;23.266;2022-08-21T02:12:09;94859.13;;;19.76;100.00
10652;BME280;5374;42.742;23.266;2022-08-21T02:14:57;94853.72;;;19.76;100.00
10652;BME280;5374;42.742;23.266;2022-08-21T02:17:46;94863.41;;;19.69;100.00
10652;BME280;5374;42.742;23.266;2022-08-21T02:20:36;94853.78;;;19.59;100.00
10652;BME280;5374;42.742;23.266;2022-08-21T02:23:24;94859.16;;;19.59;100.00
10652;BME280;5374;42.742;23.266;2022-08-21T02:26:12;94863.13;;;19.62;100.00
10652;BME280;5374;42.742;23.266;2022-08-21T02:29:01;94864.25;;;19.52;100.00
10652;BME280;5374;42.742;23.266;2022-08-21T02:31:48;94848.09;;;19.35;100.00
10652;BME280;5374;42.742;23.266;2022-08-21T02:34:35;94853.13;;;19.45;100.00
10652;BME280;5374;42.742;23.266;2022-08-21T02:37:23;94862.66;;;19.42;100.00
10652;BME280;5374;42.742;23.266;2022-08-21T02:40:11;94861.53;;;19.43;100.00
10652;BME280;5374;42.742;23.266;2022-08-21T02:42:58;94860.47;;;19.19;100.00
10652;BME280;5374;42.742;23.266;2022-08-21T02:45:47;94865.97;;;19.22;100.00
10652;BME280;5374;42.742;23.266;2022-08-21T02:48:35;94863.16;;;19.10;100.00
10652;BME280;5374;42.742;23.266;2022-08-21T02:51:22;94864.91;;;19.15;100.00
10652;BME280;5374;42.742;23.266;2022-08-21T02:54:10;94856.34;;;19.12;100.00
10652;BME280;5374;42.742;23.266;2022-08-21T02:56:57;94869.00;;;19.21;100.00
10652;BME280;5374;42.742;23.266;2022-08-21T02:59:44;94863.59;;;19.21;100.00
10652;BME280;5374;42.742;23.266;2022-08-21T03:02:34;94863.47;;;19.17;100.00
10652;BME280;5374;42.742;23.266;2022-08-21T03:05:22;94869.34;;;19.19;100.00
10652;BME280;5374;42.742;23.266;2022-08-21T03:08:12;94861.72;;;19.12;100.00
10652;BME280;5374;42.742;23.266;2022-08-21T03:10:59;94875.97;;;19.22;100.00
10652;BME280;5374;42.742;23.266;2022-08-21T03:13:47;94868.66;;;19.22;100.00
10652;BME280;5374;42.742;23.266;2022-08-21T03:16:34;94872.81;;;19.20;100.00
10652;BME280;5374;42.742;23.266;2022-08-21T03:19:23;94878.50;;;19.27;100.00
10652;BME280;5374;42.742;23.266;2022-08-21T03:22:10;94868.84;;;19.26;100.00
10652;BME280;5374;42.742;23.266;2022-08-21T03:24:57;94874.69;;;19.28;100.00
10652;BME280;5374;42.742;23.266;2022-08-21T03:27:44;94868.19;;;19.29;100.00
10652;BME280;5374;42.742;23.266;2022-08-21T03:30:33;94871.84;;;19.33;100.00
10652;BME280;5374;42.742;23.266;2022-08-21T03:33:20;94863.94;;;19.28;100.00
10652;BME280;5374;42.742;23.266;2022-08-21T03:36:09;94874.38;;;19.38;100.00
10652;BME280;5374;42.742;23.266;2022-08-21T03:38:56;94869.00;;;19.38;100.00
10652;BME280;5374;42.742;23.266;2022-08-21T03:41:44;94869.16;;;19.41;100.00
10652;BME280;5374;42.742;23.266;2022-08-21T03:44:31;94866.78;;;19.40;100.00
10652;BME280;5374;42.742;23.266;2022-08-21T03:47:18;94875.00;;;19.35;100.00
10652;BME280;5374;42.742;23.266;2022-08-21T03:50:06;94869.31;;;19.28;100.00
10652;BME280;5374;42.742;23.266;2022-08-21T03:52:55;94872.16;;;19.31;100.00
10652;BME280;5374;42.742;23.266;2022-08-21T03:55:42;94876.75;;;19.31;100.00
10652;BME280;5374;42.742;23.266;2022-08-21T03:58:29;94875.81;;;19.27;100.00
10652;BME280;5374;42.742;23.266;2022-08-21T04:01:17;94883.09;;;19.26;100.00
10652;BME280;5374;42.742;23.266;2022-08-21T04:04:04;94870.28;;;19.15;100.00
10652;BME280;5374;42.742;23.266;2022-08-21T04:06:51;94886.09;;;19.25;100.00
10652;BME280;5374;42.742;23.266;2022-08-21T04:09:40;94887.38;;;19.27;100.00
10652;BME280;5374;42.742;23.266;2022-08-21T04:12:27;94883.72;;;19.23;100.00
10652;BME280;5374;42.742;23.266;2022-08-21T04:15:14;94892.28;;;19.25;100.00
10652;BME280;5374;42.742;23.266;2022-08-21T04:18:03;94885.31;;;19.24;100.00
10652;BME280;5374;42.742;23.266;2022-08-21T04:20:52;94885.63;;;19.23;100.00
10652;BME280;5374;42.742;23.266;2022-08-21T04:23:40;94887.69;;;19.26;100.00
10652;BME280;5374;42.742;23.266;2022-08-21T04:26:29;94879.91;;;19.33;100.00
10652;BME280;5374;42.742;23.266;2022-08-21T04:29:17;94888.94;;;19.37;100.00
10652;BME280;5374;42.742;23.266;2022-08-21T04:32:06;94889.75;;;19.37;100.00
10652;BME280;5374;42.742;23.266;2022-08-21T04:34:58;94885.00;;;19.34;100.00
10652;BME280;5374;42.742;23.266;2022-08-21T04:37:45;94883.56;;;19.37;100.00
10652;BME280;5374;42.742;23.266;2022-08-21T04:40:33;94882.13;;;19.39;100.00
10652;BME280;5374;42.742;23.266;2022-08-21T04:43:21;94891.00;;;19.57;100.00
10652;BME280;5374;42.742;23.266;2022-08-21T04:46:09;94878.34;;;19.58;100.00
10652;BME280;5374;42.742;23.266;2022-08-21T04:48:56;94885.75;;;19.69;100.00
10652;BME280;5374;42.742;23.266;2022-08-21T04:51:44;94888.44;;;19.78;100.00
10652;BME280;5374;42.742;23.266;2022-08-21T04:54:31;94891.75;;;19.84;100.00
10652;BME280;5374;42.742;23.266;2022-08-21T04:57:19;94887.31;;;19.88;100.00
10652;BME280;5374;42.742;23.266;2022-08-21T05:00:09;94876.00;;;19.94;100.00
10652;BME280;5374;42.742;23.266;2022-08-21T05:03:00;94880.91;;;20.01;100.00
10652;BME280;5374;42.742;23.266;2022-08-21T05:05:48;94879.00;;;20.01;100.00
10652;BME280;5374;42.742;23.266;2022-08-21T05:08:36;94887.25;;;20.05;100.00
10652;BME280;5374;42.742;23.266;2022-08-21T05:11:24;94892.00;;;20.08;100.00
10652;BME280;5374;42.742;23.266;2022-08-21T05:14:12;94881.84;;;20.05;100.00
10652;BME280;5374;42.742;23.266;2022-08-21T05:17:01;94891.63;;;20.18;100.00
10652;BME280;5374;42.742;23.266;2022-08-21T05:19:50;94894.28;;;20.27;100.00
10652;BME280;5374;42.742;23.266;2022-08-21T05:22:38;94900.31;;;20.32;100.00
10652;BME280;5374;42.742;23.266;2022-08-21T05:25:25;94885.88;;;20.28;100.00
10652;BME280;5374;42.742;23.266;2022-08-21T05:28:12;94892.88;;;20.29;100.00
10652;BME280;5374;42.742;23.266;2022-08-21T05:30:59;94893.66;;;20.30;100.00
10652;BME280;5374;42.742;23.266;2022-08-21T05:33:48;94879.63;;;20.36;100.00
10652;BME280;5374;42.742;23.266;2022-08-21T05:36:35;94879.34;;;20.38;100.00
10652;BME280;5374;42.742;23.266;2022-08-21T05:39:22;94875.53;;;20.39;100.00
10652;BME280;5374;42.742;23.266;2022-08-21T05:42:09;94880.72;;;20.53;100.00
10652;BME280;5374;42.742;23.266;2022-08-21T05:44:56;94874.94;;;20.63;100.00
10652;BME280;5374;42.742;23.266;2022-08-21T05:47:43;94872.78;;;20.77;100.00
10652;BME280;5374;42.742;23.266;2022-08-21T05:50:32;94862.97;;;20.72;100.00
10652;BME280;5374;42.742;23.266;2022-08-21T05:53:21;94837.66;;;20.56;100.00
10652;BME280;5374;42.742;23.266;2022-08-21T05:56:10;94869.31;;;20.76;100.00
10652;BME280;5374;42.742;23.266;2022-08-21T05:58:58;94872.13;;;20.80;100.00
10652;BME280;5374;42.742;23.266;2022-08-21T06:01:45;94878.25;;;20.89;100.00
10652;BME280;5374;42.742;23.266;2022-08-21T06:04:35;94885.69;;;20.92;100.00
10652;BME280;5374;42.742;23.266;2022-08-21T06:07:24;94877.47;;;20.89;100.00
10652;BME280;5374;42.742;23.266;2022-08-21T06:10:11;94871.28;;;20.88;100.00
10652;BME280;5374;42.742;23.266;2022-08-21T06:12:58;94875.88;;;20.88;100.00
10652;BME280;5374;42.742;23.266;2022-08-21T06:15:45;94877.94;;;20.91;100.00
10652;BME280;5374;42.742;23.266;2022-08-21T06:18:33;94883.28;;;20.99;100.00
10652;BME280;5374;42.742;23.266;2022-08-21T06:21:21;94874.25;;;21.16;100.00
10652;BME280;5374;42.742;23.266;2022-08-21T06:24:09;94872.28;;;21.25;100.00
10652;BME280;5374;42.742;23.266;2022-08-21T06:26:57;94848.22;;;21.32;100.00
10652;BME280;5374;42.742;23.266;2022-08-21T06:29:44;94848.91;;;21.62;100.00
10652;BME280;5374;42.742;23.266;2022-08-21T06:32:31;94877.13;;;21.98;100.00
10652;BME280;5374;42.742;23.266;2022-08-21T06:35:19;94866.59;;;22.17;100.00
10652;BME280;5374;42.742;23.266;2022-08-21T06:38:06;94880.38;;;22.48;100.00
10652;BME280;5374;42.742;23.266;2022-08-21T06:40:54;94877.31;;;22.62;100.00
10652;BME280;5374;42.742;23.266;2022-08-21T06:43:41;94883.75;;;22.70;100.00
10652;BME280;5374;42.742;23.266;2022-08-21T06:46:30;94880.94;;;22.78;100.00
10652;BME280;5374;42.742;23.266;2022-08-21T06:49:17;94883.53;;;23.27;100.00
10652;BME280;5374;42.742;23.266;2022-08-21T06:52:08;94879.94;;;24.07;100.00
10652;BME280;5374;42.742;23.266;2022-08-21T06:54:55;94882.38;;;24.75;98.92
10652;BME280;5374;42.742;23.266;2022-08-21T06:57:44;94868.53;;;25.15;88.02
10652;BME280;5374;42.742;23.266;2022-08-21T07:00:31;94879.00;;;25.32;86.41
10652;BME280;5374;42.742;23.266;2022-08-21T07:03:21;94868.25;;;25.78;79.67
10652;BME280;5374;42.742;23.266;2022-08-21T07:06:09;94880.06;;;26.50;80.36
10652;BME280;5374;42.742;23.266;2022-08-21T07:08:57;94877.75;;;27.02;72.69
10652;BME280;5374;42.742;23.266;2022-08-21T07:11:47;94877.88;;;27.69;70.69
10652;BME280;5374;42.742;23.266;2022-08-21T07:14:38;94883.81;;;28.15;65.36
10652;BME280;5374;42.742;23.266;2022-08-21T07:17:25;94877.88;;;28.43;65.04
10652;BME280;5374;42.742;23.266;2022-08-21T07:20:12;94886.47;;;28.08;63.13
10652;BME280;5374;42.742;23.266;2022-08-21T07:23:02;94886.41;;;28.01;65.16
10652;BME280;5374;42.742;23.266;2022-08-21T07:25:51;94881.56;;;28.20;63.56
10652;BME280;5374;42.742;23.266;2022-08-21T07:28:38;94877.47;;;28.92;63.52
10652;BME280;5374;42.742;23.266;2022-08-21T07:31:27;94877.94;;;29.81;60.93
10652;BME280;5374;42.742;23.266;2022-08-21T07:34:14;94858.91;;;30.45;58.17
10652;BME280;5374;42.742;23.266;2022-08-21T07:37:02;94864.41;;;30.55;57.94
10652;BME280;5374;42.742;23.266;2022-08-21T07:39:49;94857.63;;;29.92;58.07
10652;BME280;5374;42.742;23.266;2022-08-21T07:42:40;94848.16;;;29.65;59.10
10652;BME280;5374;42.742;23.266;2022-08-21T07:45:28;94854.31;;;29.41;58.53
10652;BME280;5374;42.742;23.266;2022-08-21T07:48:16;94858.44;;;29.06;58.20
10652;BME280;5374;42.742;23.266;2022-08-21T07:51:07;94831.22;;;28.66;60.41
10652;BME280;5374;42.742;23.266;2022-08-21T07:53:56;94860.16;;;28.77;60.29
10652;BME280;5374;42.742;23.266;2022-08-21T07:56:44;94852.38;;;28.79;61.56
10652;BME280;5374;42.742;23.266;2022-08-21T07:59:31;94858.44;;;29.06;60.19
10652;BME280;5374;42.742;23.266;2022-08-21T08:02:23;94854.47;;;28.97;59.94
10652;BME280;5374;42.742;23.266;2022-08-21T08:05:12;94844.25;;;28.86;60.04
10652;BME280;5374;42.742;23.266;2022-08-21T08:07:59;94856.19;;;29.26;59.93
10652;BME280;5374;42.742;23.266;2022-08-21T08:10:46;94854.09;;;29.92;56.50
10652;BME280;5374;42.742;23.266;2022-08-21T08:13:38;94847.94;;;30.41;56.45
10652;BME280;5374;42.742;23.266;2022-08-21T08:16:26;94844.84;;;30.57;52.77
10652;BME280;5374;42.742;23.266;2022-08-21T08:19:13;94847.16;;;30.73;53.66
10652;BME280;5374;42.742;23.266;2022-08-21T08:22:12;94835.41;;;30.79;50.41
10652;BME280;5374;42.742;23.266;2022-08-21T08:24:59;94829.16;;;30.82;49.95
10652;BME280;5374;42.742;23.266;2022-08-21T08:27:47;94826.00;;;30.91;48.83
10652;BME280;5374;42.742;23.266;2022-08-21T08:30:34;94836.56;;;31.14;49.84
10652;BME280;5374;42.742;23.266;2022-08-21T08:33:21;94837.22;;;31.50;49.42
10652;BME280;5374;42.742;23.266;2022-08-21T08:36:13;94840.78;;;31.40;48.58
10652;BME280;5374;42.742;23.266;2022-08-21T08:39:03;94843.94;;;31.31;47.04
10652;BME280;5374;42.742;23.266;2022-08-21T08:41:52;94837.28;;;31.32;47.81
10652;BME280;5374;42.742;23.266;2022-08-21T08:44:44;94827.13;;;31.08;48.44
10652;BME280;5374;42.742;23.266;2022-08-21T08:47:35;94841.97;;;31.35;47.78
10652;BME280;5374;42.742;23.266;2022-08-21T08:50:26;94849.91;;;30.87;48.98
10652;BME280;5374;42.742;23.266;2022-08-21T08:53:19;94851.50;;;30.59;50.28
10652;BME280;5374;42.742;23.266;2022-08-21T08:56:09;94844.44;;;30.26;50.77
10652;BME280;5374;42.742;23.266;2022-08-21T08:59:01;94840.88;;;30.05;52.77
10652;BME280;5374;42.742;23.266;2022-08-21T09:01:49;94839.31;;;30.00;52.98
10652;BME280;5374;42.742;23.266;2022-08-21T09:04:36;94835.00;;;30.10;52.96
10652;BME280;5374;42.742;23.266;2022-08-21T09:07:33;94833.88;;;30.50;52.83
10652;BME280;5374;42.742;23.266;2022-08-21T09:10:30;94827.19;;;30.51;51.52
10652;BME280;5374;42.742;23.266;2022-08-21T09:13:32;94822.09;;;30.35;51.66
10652;BME280;5374;42.742;23.266;2022-08-21T09:16:30;94816.63;;;30.49;51.25
10652;BME280;5374;42.742;23.266;2022-08-21T09:19:36;94818.97;;;30.40;50.94
10652;BME280;5374;42.742;23.266;2022-08-21T09:22:44;94817.81;;;30.48;50.27
10652;BME280;5374;42.742;23.266;2022-08-21T09:25:42;94814.28;;;30.41;52.65
10652;BME280;5374;42.742;23.266;2022-08-21T09:28:35;94804.13;;;30.66;51.15
10652;BME280;5374;42.742;23.266;2022-08-21T09:31:26;94803.34;;;30.69;51.85
10652;BME280;5374;42.742;23.266;2022-08-21T09:34:24;94787.63;;;30.73;50.41
10652;BME280;5374;42.742;23.266;2022-08-21T09:37:16;94783.34;;;30.69;52.10
10652;BME280;5374;42.742;23.266;2022-08-21T09:40:19;94791.97;;;30.60;50.58
10652;BME280;5374;42.742;23.266;2022-08-21T09:43:16;94795.47;;;30.53;50.13
10652;BME280;5374;42.742;23.266;2022-08-21T09:46:10;94785.28;;;30.54;51.27
10652;BME280;5374;42.742;23.266;2022-08-21T09:49:00;94779.84;;;30.43;50.09
10652;BME280;5374;42.742;23.266;2022-08-21T09:51:50;94785.31;;;30.65;51.47
10652;BME280;5374;42.742;23.266;2022-08-21T09:54:40;94776.28;;;29.97;52.46
10652;BME280;5374;42.742;23.266;2022-08-21T09:57:30;94781.72;;;29.68;53.04
10652;BME280;5374;42.742;23.266;2022-08-21T10:00:28;94783.56;;;29.36;54.41
10652;BME280;5374;42.742;23.266;2022-08-21T10:03:19;94770.56;;;29.11;53.63
10652;BME280;5374;42.742;23.266;2022-08-21T10:06:08;94779.56;;;29.12;53.78
10652;BME280;5374;42.742;23.266;2022-08-21T10:09:05;94771.88;;;28.15;55.93
10652;BME280;5374;42.742;23.266;2022-08-21T10:12:06;94775.09;;;28.28;55.94
10652;BME280;5374;42.742;23.266;2022-08-21T10:15:01;94765.56;;;28.07;56.38
10652;BME280;5374;42.742;23.266;2022-08-21T10:18:00;94773.13;;;28.21;56.25
10652;BME280;5374;42.742;23.266;2022-08-21T10:20:57;94766.66;;;28.47;55.83
10652;BME280;5374;42.742;23.266;2022-08-21T10:23:57;94756.00;;;28.86;54.94
10652;BME280;5374;42.742;23.266;2022-08-21T10:26:53;94765.25;;;28.67;54.52
10652;BME280;5374;42.742;23.266;2022-08-21T10:29:49;94746.59;;;28.25;55.93
10652;BME280;5374;42.742;23.266;2022-08-21T10:33:13;94758.13;;;28.01;58.28
10652;BME280;5374;42.742;23.266;2022-08-21T10:36:08;94738.06;;;28.30;56.82
10652;BME280;5374;42.742;23.266;2022-08-21T10:39:07;94756.50;;;28.47;55.24
10652;BME280;5374;42.742;23.266;2022-08-21T10:42:15;94755.91;;;28.79;55.16
10652;BME280;5374;42.742;23.266;2022-08-21T10:45:11;94713.72;;;28.69;53.29
10652;BME280;5374;42.742;23.266;2022-08-21T10:48:04;94747.09;;;29.03;54.11
10652;BME280;5374;42.742;23.266;2022-08-21T10:51:02;94745.19;;;29.14;53.17
10652;BME280;5374;42.742;23.266;2022-08-21T10:54:00;94731.59;;;29.43;52.96
10652;BME280;5374;42.742;23.266;2022-08-21T10:56:52;94727.25;;;29.27;51.72
10652;BME280;5374;42.742;23.266;2022-08-21T10:59:50;94718.25;;;29.27;54.82
10652;BME280;5374;42.742;23.266;2022-08-21T11:02:46;94690.09;;;29.23;53.20
10652;BME280;5374;42.742;23.266;2022-08-21T11:05:41;94708.84;;;29.17;51.91
10652;BME280;5374;42.742;23.266;2022-08-21T11:08:33;94707.59;;;28.93;51.36
10652;BME280;5374;42.742;23.266;2022-08-21T11:11:27;94702.88;;;28.83;53.71
10652;BME280;5374;42.742;23.266;2022-08-21T11:14:23;94703.38;;;29.10;52.99
10652;BME280;5374;42.742;23.266;2022-08-21T11:17:13;94687.34;;;29.16;55.04
10652;BME280;5374;42.742;23.266;2022-08-21T11:20:06;94697.22;;;29.42;53.34
10652;BME280;5374;42.742;23.266;2022-08-21T11:22:58;94692.91;;;29.44;52.73
10652;BME280;5374;42.742;23.266;2022-08-21T11:25:52;94676.88;;;29.36;53.49
10652;BME280;5374;42.742;23.266;2022-08-21T11:28:45;94691.31;;;29.33;53.11
10652;BME280;5374;42.742;23.266;2022-08-21T11:31:41;94695.63;;;29.41;53.53
10652;BME280;5374;42.742;23.266;2022-08-21T11:34:43;94684.28;;;29.28;53.24
10652;BME280;5374;42.742;23.266;2022-08-21T11:37:46;94678.81;;;29.39;53.23
10652;BME280;5374;42.742;23.266;2022-08-21T11:40:57;94685.91;;;29.61;52.87
10652;BME280;5374;42.742;23.266;2022-08-21T11:43:55;94671.84;;;29.55;52.84
10652;BME280;5374;42.742;23.266;2022-08-21T11:46:49;94671.44;;;29.71;51.13
10652;BME280;5374;42.742;23.266;2022-08-21T11:49:58;94668.31;;;29.73;53.41
10652;BME280;5374;42.742;23.266;2022-08-21T11:52:52;94678.47;;;29.51;53.13
10652;BME280;5374;42.742;23.266;2022-08-21T11:55:43;94664.75;;;29.37;51.36
10652;BME280;5374;42.742;23.266;2022-08-21T11:58:37;94645.16;;;29.20;53.70
10652;BME280;5374;42.742;23.266;2022-08-21T12:01:31;94669.28;;;28.83;55.20
10652;BME280;5374;42.742;23.266;2022-08-21T12:04:25;94673.38;;;28.48;55.20
10652;BME280;5374;42.742;23.266;2022-08-21T12:07:17;94671.81;;;28.40;55.75
10652;BME280;5374;42.742;23.266;2022-08-21T12:10:07;94648.44;;;28.46;55.37
10652;BME280;5374;42.742;23.266;2022-08-21T12:13:06;94659.75;;;28.52;54.26
10652;BME280;5374;42.742;23.266;2022-08-21T12:16:05;94653.88;;;28.43;53.92
10652;BME280;5374;42.742;23.266;2022-08-21T12:19:02;94656.94;;;28.34;54.72
10652;BME280;5374;42.742;23.266;2022-08-21T12:21:52;94658.97;;;28.44;55.71
10652;BME280;5374;42.742;23.266;2022-08-21T12:24:42;94666.06;;;28.63;53.86
10652;BME280;5374;42.742;23.266;2022-08-21T12:27:44;94675.59;;;28.25;55.06
10652;BME280;5374;42.742;23.266;2022-08-21T12:30:35;94671.78;;;27.85;56.23
10652;BME280;5374;42.742;23.266;2022-08-21T12:33:26;94672.38;;;27.61;56.41
10652;BME280;5374;42.742;23.266;2022-08-21T12:36:20;94670.84;;;27.64;57.02
10652;BME280;5374;42.742;23.266;2022-08-21T12:39:14;94668.38;;;27.51;56.39
10652;BME280;5374;42.742;23.266;2022-08-21T12:42:15;94674.63;;;27.52;55.91
10652;BME280;5374;42.742;23.266;2022-08-21T12:45:07;94676.13;;;27.46;56.58
10652;BME280;5374;42.742;23.266;2022-08-21T12:48:00;94671.63;;;27.64;57.01
10652;BME280;5374;42.742;23.266;2022-08-21T12:50:51;94668.19;;;27.71;54.99
10652;BME280;5374;42.742;23.266;2022-08-21T12:53:42;94660.78;;;27.71;55.90
10652;BME280;5374;42.742;23.266;2022-08-21T12:56:33;94669.19;;;27.52;56.82
10652;BME280;5374;42.742;23.266;2022-08-21T12:59:21;94644.03;;;27.29;56.23
10652;BME280;5374;42.742;23.266;2022-08-21T13:02:15;94665.97;;;27.43;56.56
10652;BME280;5374;42.742;23.266;2022-08-21T13:05:05;94655.69;;;27.26;57.65
10652;BME280;5374;42.742;23.266;2022-08-21T13:07:53;94665.72;;;27.18;58.17
10652;BME280;5374;42.742;23.266;2022-08-21T13:10:43;94669.97;;;27.15;58.62
10652;BME280;5374;42.742;23.266;2022-08-21T13:13:31;94664.72;;;26.66;58.47
10652;BME280;5374;42.742;23.266;2022-08-21T13:16:22;94662.19;;;26.50;59.27
10652;BME280;5374;42.742;23.266;2022-08-21T13:19:15;94653.19;;;26.46;59.49
10652;BME280;5374;42.742;23.266;2022-08-21T13:22:12;94654.06;;;26.54;59.37
10652;BME280;5374;42.742;23.266;2022-08-21T13:25:00;94653.25;;;26.50;60.26
10652;BME280;5374;42.742;23.266;2022-08-21T13:28:00;94641.00;;;26.67;59.45
10652;BME280;5374;42.742;23.266;2022-08-21T13:30:49;94645.88;;;26.84;58.90
10652;BME280;5374;42.742;23.266;2022-08-21T13:33:38;94632.31;;;26.87;59.23
10652;BME280;5374;42.742;23.266;2022-08-21T13:36:31;94616.31;;;26.86;59.07
10652;BME280;5374;42.742;23.266;2022-08-21T13:39:19;94619.63;;;27.02;58.19
10652;BME280;5374;42.742;23.266;2022-08-21T13:42:10;94620.56;;;27.20;57.75
10652;BME280;5374;42.742;23.266;2022-08-21T13:45:00;94622.63;;;27.31;56.26
10652;BME280;5374;42.742;23.266;2022-08-21T13:47:47;94623.78;;;27.30;56.76
10652;BME280;5374;42.742;23.266;2022-08-21T13:50:36;94615.72;;;27.44;56.55
10652;BME280;5374;42.742;23.266;2022-08-21T13:53:29;94621.41;;;27.24;58.92
10652;BME280;5374;42.742;23.266;2022-08-21T13:56:22;94622.22;;;27.29;57.98
10652;BME280;5374;42.742;23.266;2022-08-21T13:59:10;94627.53;;;27.14;59.47
10652;BME280;5374;42.742;23.266;2022-08-21T14:02:00;94623.28;;;26.83;60.80
10652;BME280;5374;42.742;23.266;2022-08-21T14:04:51;94615.34;;;27.01;59.96
10652;BME280;5374;42.742;23.266;2022-08-21T14:07:42;94604.84;;;27.03;60.22
10652;BME280;5374;42.742;23.266;2022-08-21T14:10:29;94607.72;;;27.21;59.46
10652;BME280;5374;42.742;23.266;2022-08-21T14:13:28;94602.72;;;27.27;58.34
10652;BME280;5374;42.742;23.266;2022-08-21T14:16:19;94600.03;;;27.30;58.48
10652;BME280;5374;42.742;23.266;2022-08-21T14:19:19;94583.13;;;27.14;59.32
10652;BME280;5374;42.742;23.266;2022-08-21T14:22:38;94604.56;;;27.15;59.34
10652;BME280;5374;42.742;23.266;2022-08-21T14:25:29;94612.50;;;27.31;58.86
10652;BME280;5374;42.742;23.266;2022-08-21T14:28:22;94613.00;;;27.44;59.36
10652;BME280;5374;42.742;23.266;2022-08-21T14:31:13;94622.38;;;27.46;58.65
10652;BME280;5374;42.742;23.266;2022-08-21T14:34:01;94619.06;;;27.27;58.79
10652;BME280;5374;42.742;23.266;2022-08-21T14:36:50;94617.97;;;27.35;60.14
10652;BME280;5374;42.742;23.266;2022-08-21T14:39:38;94613.09;;;27.54;58.19
10652;BME280;5374;42.742;23.266;2022-08-21T14:42:25;94612.75;;;27.19;59.24
10652;BME280;5374;42.742;23.266;2022-08-21T14:45:15;94613.75;;;27.41;58.62
10652;BME280;5374;42.742;23.266;2022-08-21T14:48:02;94621.06;;;27.30;58.04
10652;BME280;5374;42.742;23.266;2022-08-21T14:50:50;94616.69;;;27.21;58.25
10652;BME280;5374;42.742;23.266;2022-08-21T14:53:39;94615.91;;;27.21;59.62
10652;BME280;5374;42.742;23.266;2022-08-21T14:56:26;94615.19;;;27.28;62.07